Time;durP1;ratioP1;P1;durP2;ratioP2;P2;SDS_P1;SDS_P2;PMS_P1;PMS_P2;Temp;Humidity;BMP_temperature;BMP_pressure;BME280_temperature;BME280_humidity;BME280_pressure;Samples;Min_cycle;Max_cycle;Signal;HPM_P1;HPM_P2
2023/04/08 00:01:53;;;;;;;19.55;13.73;;;;;;;6.79;100.00;102087.56;4957432;28;20040;-73
2023/04/08 00:04:18;;;;;;;17.95;13.38;;;;;;;6.79;100.00;102092.72;4953710;28;20390;-74
2023/04/08 00:06:43;;;;;;;20.73;14.32;;;;;;;6.79;100.00;102090.13;4975301;28;20073;-75
2023/04/08 00:09:09;;;;;;;21.23;14.57;;;;;;;6.81;100.00;102092.03;4965105;28;20019;-73
2023/04/08 00:11:34;;;;;;;25.98;15.18;;;;;;;6.81;100.00;102094.63;4966915;28;20463;-74
2023/04/08 00:14:01;;;;;;;20.08;14.05;;;;;;;6.81;100.00;102098.88;4962626;28;20050;-74
2023/04/08 00:16:26;;;;;;;23.67;15.05;;;;;;;6.81;100.00;102091.13;4966959;28;20026;-73
2023/04/08 00:18:52;;;;;;;25.52;15.55;;;;;;;6.82;100.00;102090.34;4968129;28;20368;-74
2023/04/08 00:21:19;;;;;;;20.50;15.27;;;;;;;6.81;100.00;102089.47;4962811;28;20019;-74
2023/04/08 00:23:45;;;;;;;27.83;14.85;;;;;;;6.82;100.00;102092.91;4960115;28;20018;-74
2023/04/08 00:26:10;;;;;;;25.63;14.68;;;;;;;6.83;100.00;102087.00;4965963;28;20022;-74
2023/04/08 00:28:36;;;;;;;24.35;14.85;;;;;;;6.83;100.00;102090.47;4965274;28;20034;-74
2023/04/08 00:31:01;;;;;;;24.55;16.10;;;;;;;6.84;100.00;102091.34;4965516;28;20023;-74
2023/04/08 00:33:27;;;;;;;22.85;15.18;;;;;;;6.85;100.00;102091.44;4965410;28;20201;-74
2023/04/08 00:35:52;;;;;;;22.65;15.52;;;;;;;6.86;100.00;102084.59;4960854;28;20026;-74
2023/04/08 00:38:18;;;;;;;21.63;16.02;;;;;;;6.87;100.00;102089.00;4951250;28;20027;-74
2023/04/08 00:40:43;;;;;;;26.42;16.27;;;;;;;6.87;100.00;102086.41;4970328;28;20456;-73
2023/04/08 00:43:08;;;;;;;27.25;16.50;;;;;;;6.89;100.00;102096.81;4957045;28;20031;-73
2023/04/08 00:45:34;;;;;;;23.02;15.52;;;;;;;6.87;100.00;102094.16;4953579;28;20062;-74
2023/04/08 00:48:01;;;;;;;24.88;16.88;;;;;;;6.88;100.00;102100.16;4955014;28;20027;-73
2023/04/08 00:50:26;;;;;;;25.48;16.52;;;;;;;6.88;100.00;102101.06;4953808;28;20023;-74
2023/04/08 00:52:51;;;;;;;33.35;18.15;;;;;;;6.88;100.00;102103.66;4961307;28;20027;-74
2023/04/08 00:55:17;;;;;;;33.55;17.98;;;;;;;6.89;100.00;102099.41;4959681;28;20025;-74
2023/04/08 00:57:43;;;;;;;30.17;18.40;;;;;;;6.89;100.00;102097.69;4970726;28;20027;-75
2023/04/08 01:00:09;;;;;;;25.88;18.10;;;;;;;6.89;100.00;102102.84;4965688;28;20571;-74
2023/04/08 01:02:46;;;;;;;30.80;19.50;;;;;;;6.90;100.00;102102.06;4967296;28;20102;-74
2023/04/08 01:05:19;;;;;;;31.92;18.92;;;;;;;6.91;100.00;102097.78;4953393;28;20023;-74
2023/04/08 01:07:49;;;;;;;29.10;18.38;;;;;;;6.90;100.00;102102.06;4953677;28;20027;-74
2023/04/08 01:10:18;;;;;;;31.40;19.52;;;;;;;6.90;100.00;102104.66;4971508;28;20023;-74
2023/04/08 01:12:50;;;;;;;28.60;17.85;;;;;;;6.91;100.00;102102.94;4974673;28;20032;-74
2023/04/08 01:15:16;;;;;;;33.30;20.05;;;;;;;6.90;100.00;102099.50;4977046;28;20042;-74
2023/04/08 01:17:43;;;;;;;34.78;20.73;;;;;;;6.90;100.00;102102.06;4982856;28;20027;-74
2023/04/08 01:20:09;;;;;;;40.95;21.85;;;;;;;6.90;100.00;102101.19;4969688;28;20542;-75
2023/04/08 01:22:59;;;;;;;34.75;19.30;;;;;;;6.90;100.00;102106.31;4970873;28;20023;-75
2023/04/08 01:25:31;;;;;;;32.03;21.15;;;;;;;6.90;100.00;102104.66;4958151;28;20106;-74
2023/04/08 01:28:04;;;;;;;32.58;20.60;;;;;;;6.90;100.00;102104.66;4966002;28;20025;-75
2023/04/08 01:30:31;;;;;;;39.80;22.10;;;;;;;6.90;100.00;102107.22;4959631;28;20291;-74
2023/04/08 01:32:58;;;;;;;31.83;20.88;;;;;;;6.89;100.00;102104.56;4971995;28;20688;-74
2023/04/08 01:35:24;;;;;;;32.38;20.27;;;;;;;6.89;100.00;102105.44;4959715;28;20038;-75
2023/04/08 01:37:51;;;;;;;36.05;21.65;;;;;;;6.88;100.00;102111.38;4972855;28;20034;-73
2023/04/08 01:40:18;;;;;;;35.90;21.20;;;;;;;6.87;100.00;102112.19;4965808;28;20427;-74
2023/04/08 01:42:46;;;;;;;39.00;23.02;;;;;;;6.86;100.00;102110.38;4965062;28;20035;-75
2023/04/08 01:45:12;;;;;;;34.83;23.73;;;;;;;6.84;100.00;102109.38;4963482;28;20058;-73
2023/04/08 01:47:38;;;;;;;35.30;22.80;;;;;;;6.85;100.00;102113.75;4964782;28;20027;-74
2023/04/08 01:50:06;;;;;;;35.63;23.95;;;;;;;6.84;100.00;102111.97;4964376;28;20057;-75
2023/04/08 01:52:34;;;;;;;37.70;23.42;;;;;;;6.84;100.00;102117.09;4969459;28;20039;-74
2023/04/08 01:54:59;;;;;;;38.63;23.60;;;;;;;6.84;100.00;102111.97;4964411;28;20027;-75
2023/04/08 01:57:27;;;;;;;37.13;22.75;;;;;;;6.83;100.00;102111.09;4964837;28;20022;-75
2023/04/08 01:59:58;;;;;;;39.00;23.23;;;;;;;6.84;100.00;102111.97;4959816;28;20027;-74
2023/04/08 02:02:25;;;;;;;38.45;24.05;;;;;;;6.84;100.00;102111.97;4966407;28;20033;-74
2023/04/08 02:04:52;;;;;;;32.30;22.50;;;;;;;6.84;100.00;102123.16;4954414;28;20027;-74
2023/04/08 02:07:18;;;;;;;33.25;23.30;;;;;;;6.83;100.00;102117.91;4959566;28;20563;-74
2023/04/08 02:09:44;;;;;;;40.45;23.00;;;;;;;6.83;100.00;102120.50;4957893;28;20070;-74
2023/04/08 02:12:09;;;;;;;35.00;23.13;;;;;;;6.83;100.00;102123.97;4966372;28;20050;-74
2023/04/08 02:14:35;;;;;;;35.72;23.55;;;;;;;6.83;100.00;102118.81;4953679;28;20562;-74
2023/04/08 02:17:20;;;;;;;37.78;24.55;;;;;;;6.82;100.00;102119.59;4955073;28;20243;-74
2023/04/08 02:20:09;;;;;;;38.88;24.60;;;;;;;6.82;100.00;102110.94;4971935;28;20026;-74
2023/04/08 02:22:56;;;;;;;40.92;23.85;;;;;;;6.80;100.00;102121.16;4958431;28;20066;-74
2023/04/08 02:25:23;;;;;;;39.30;24.98;;;;;;;6.80;100.00;102120.28;4963081;28;20027;-74
2023/04/08 02:27:50;;;;;;;40.42;24.30;;;;;;;6.79;100.00;102124.53;4964704;28;20050;-74
2023/04/08 02:30:17;;;;;;;36.15;24.30;;;;;;;6.80;100.00;102122.88;4957988;28;20388;-73
2023/04/08 02:32:44;;;;;;;40.90;24.35;;;;;;;6.80;100.00;102120.28;4968912;28;20063;-74
2023/04/08 02:35:10;;;;;;;42.20;24.60;;;;;;;6.80;100.00;102122.88;4961073;28;20383;-74
2023/04/08 02:37:36;;;;;;;40.00;24.70;;;;;;;6.80;100.00;102120.28;4969269;28;20034;-74
2023/04/08 02:40:01;;;;;;;39.42;25.45;;;;;;;6.79;100.00;102121.97;4965614;28;20027;-74
2023/04/08 02:42:26;;;;;;;41.70;23.80;;;;;;;6.80;100.00;102128.03;4955111;28;20029;-74
2023/04/08 02:44:52;;;;;;;39.80;25.25;;;;;;;6.80;100.00;102128.03;4966980;28;20018;-74
2023/04/08 02:47:17;;;;;;;44.20;24.73;;;;;;;6.80;100.00;102135.75;4970483;28;20033;-73
2023/04/08 02:49:43;;;;;;;39.40;25.02;;;;;;;6.80;100.00;102136.63;4965235;28;20039;-74
2023/04/08 02:52:08;;;;;;;39.10;24.75;;;;;;;6.80;100.00;102133.16;4976013;28;20455;-73
2023/04/08 02:54:33;;;;;;;39.35;24.10;;;;;;;6.80;100.00;102136.63;4969593;28;20364;-73
2023/04/08 02:56:59;;;;;;;43.13;24.85;;;;;;;6.81;100.00;102133.28;4960894;28;20027;-73
2023/04/08 02:59:24;;;;;;;42.00;25.35;;;;;;;6.80;100.00;102140.91;4963388;28;20098;-74
2023/04/08 03:01:49;;;;;;;35.97;23.60;;;;;;;6.79;100.00;102136.53;4967195;28;20475;-73
2023/04/08 03:04:15;;;;;;;36.90;24.48;;;;;;;6.78;100.00;102139.91;4963056;28;20595;-73
2023/04/08 03:06:40;;;;;;;42.45;25.15;;;;;;;6.78;100.00;102140.78;4959111;28;20023;-74
2023/04/08 03:09:06;;;;;;;39.63;24.75;;;;;;;6.79;100.00;102139.09;4959090;28;20581;-73
2023/04/08 03:11:31;;;;;;;40.13;24.70;;;;;;;6.79;100.00;102131.38;4962843;28;20030;-74
2023/04/08 03:13:56;;;;;;;40.15;25.52;;;;;;;6.79;100.00;102133.94;4959269;28;20054;-73
2023/04/08 03:16:22;;;;;;;46.90;26.77;;;;;;;6.80;100.00;102135.75;4963321;28;20066;-73
2023/04/08 03:18:49;;;;;;;33.55;24.33;;;;;;;6.79;100.00;102127.13;4953485;28;20046;-73
2023/04/08 03:21:14;;;;;;;39.22;25.63;;;;;;;6.79;100.00;102128.78;4958327;28;20460;-74
2023/04/08 03:23:40;;;;;;;41.75;25.13;;;;;;;6.80;100.00;102135.75;4980248;28;20077;-73
2023/04/08 03:26:05;;;;;;;40.33;25.40;;;;;;;6.81;100.00;102137.53;4967696;28;20382;-73
2023/04/08 03:28:30;;;;;;;42.58;23.95;;;;;;;6.81;100.00;102130.69;4967631;28;20033;-74
2023/04/08 03:30:56;;;;;;;37.92;24.85;;;;;;;6.81;100.00;102130.69;4968662;28;20375;-73
2023/04/08 03:33:21;;;;;;;45.97;26.27;;;;;;;6.79;100.00;102126.22;4962659;28;20105;-74
2023/04/08 03:35:46;;;;;;;36.25;25.33;;;;;;;6.79;100.00;102129.69;4961064;28;20471;-72
2023/04/08 03:38:11;;;;;;;49.05;28.08;;;;;;;6.79;100.00;102133.94;4969211;28;20618;-74
2023/04/08 03:40:37;;;;;;;39.90;26.67;;;;;;;6.80;100.00;102138.31;4958429;28;20023;-73
2023/04/08 03:43:02;;;;;;;47.00;26.58;;;;;;;6.79;100.00;102134.84;4963619;28;20026;-74
2023/04/08 03:45:27;;;;;;;43.17;26.38;;;;;;;6.78;100.00;102133.03;4968727;28;20490;-73
2023/04/08 03:47:53;;;;;;;45.65;26.52;;;;;;;6.79;100.00;102133.94;4958333;28;20450;-74
2023/04/08 03:50:18;;;;;;;39.05;27.50;;;;;;;6.79;100.00;102137.41;4958582;28;20026;-73
2023/04/08 03:52:43;;;;;;;44.03;28.60;;;;;;;6.79;100.00;102140.00;4977025;28;20058;-74
2023/04/08 03:55:09;;;;;;;48.40;27.08;;;;;;;6.79;100.00;102141.66;4978731;28;20026;-74
2023/04/08 03:57:34;;;;;;;49.38;28.17;;;;;;;6.80;100.00;102146.06;4965375;28;20037;-73
2023/04/08 03:59:59;;;;;;;43.67;27.02;;;;;;;6.78;100.00;102143.34;4966885;28;20026;-74
2023/04/08 04:02:25;;;;;;;41.00;24.95;;;;;;;6.79;100.00;102144.25;4961083;28;20053;-73
2023/04/08 04:04:50;;;;;;;37.33;26.85;;;;;;;6.77;100.00;102141.56;4955802;28;20018;-74
2023/04/08 04:07:15;;;;;;;39.20;26.40;;;;;;;6.77;100.00;102144.16;4956521;28;20074;-73
2023/04/08 04:09:40;;;;;;;42.90;27.55;;;;;;;6.77;100.00;102146.72;4966437;28;20201;-74
2023/04/08 04:12:06;;;;;;;43.13;27.60;;;;;;;6.77;100.00;102141.56;4965082;28;20472;-74
2023/04/08 04:14:31;;;;;;;40.00;27.80;;;;;;;6.75;100.00;102139.66;4960269;28;20133;-74
2023/04/08 04:16:56;;;;;;;47.13;27.48;;;;;;;6.75;100.00;102143.16;4956061;28;20033;-73
2023/04/08 04:19:22;;;;;;;41.63;27.67;;;;;;;6.74;100.00;102146.53;4954670;28;20023;-73
2023/04/08 04:21:47;;;;;;;41.55;28.02;;;;;;;6.72;100.00;102159.31;4953510;28;20027;-74
2023/04/08 04:24:13;;;;;;;44.42;28.38;;;;;;;6.71;100.00;102157.50;4953285;28;20035;-73
2023/04/08 04:26:40;;;;;;;50.47;28.35;;;;;;;6.71;100.00;102157.50;4952030;28;20079;-74
2023/04/08 04:29:05;;;;;;;51.10;28.67;;;;;;;6.72;100.00;102167.03;4960707;28;20058;-74
2023/04/08 04:31:31;;;;;;;48.40;28.88;;;;;;;6.73;100.00;102165.31;4960136;28;20117;-73
2023/04/08 04:33:56;;;;;;;49.72;29.85;;;;;;;6.75;100.00;102173.16;4966294;28;20050;-73
2023/04/08 04:36:21;;;;;;;45.20;28.77;;;;;;;6.73;100.00;102163.66;4963223;28;20027;-74
2023/04/08 04:38:49;;;;;;;43.20;28.80;;;;;;;6.73;100.00;102168.81;4962891;28;20460;-73
2023/04/08 04:41:14;;;;;;;39.72;26.23;;;;;;;6.73;100.00;102171.38;4957739;28;20023;-74
2023/04/08 04:43:40;;;;;;;44.75;28.63;;;;;;;6.73;100.00;102171.38;4962375;28;20041;-73
2023/04/08 04:46:07;;;;;;;55.13;28.67;;;;;;;6.74;100.00;102177.44;4972655;28;20495;-74
2023/04/08 04:48:35;;;;;;;46.10;27.58;;;;;;;6.76;100.00;102185.28;4967250;28;20037;-73
2023/04/08 04:51:02;;;;;;;51.15;28.98;;;;;;;6.76;100.00;102187.84;4966039;28;20031;-74
2023/04/08 04:53:28;;;;;;;52.88;29.85;;;;;;;6.77;100.00;102189.63;4965454;28;20041;-73
2023/04/08 04:55:54;;;;;;;47.35;29.67;;;;;;;6.77;100.00;102184.47;4960071;28;20023;-73
2023/04/08 04:58:19;;;;;;;52.55;30.33;;;;;;;6.76;100.00;102186.19;4963702;28;20038;-74
2023/04/08 05:00:45;;;;;;;47.28;28.92;;;;;;;6.77;100.00;102189.63;4957941;28;20522;-74
2023/04/08 05:03:11;;;;;;;50.13;30.30;;;;;;;6.76;100.00;102190.44;4958035;28;20030;-73
2023/04/08 05:05:36;;;;;;;45.05;28.80;;;;;;;6.76;100.00;102196.47;4963006;28;20554;-74
2023/04/08 05:08:02;;;;;;;47.58;29.60;;;;;;;6.76;100.00;102193.00;4959837;28;20207;-74
2023/04/08 05:10:27;;;;;;;42.78;26.55;;;;;;;6.76;100.00;102205.88;4963708;28;20034;-73
2023/04/08 05:12:52;;;;;;;41.13;25.50;;;;;;;6.76;100.00;102201.63;4979553;28;20184;-73
2023/04/08 05:15:18;;;;;;;44.72;27.85;;;;;;;6.76;100.00;102200.72;4962054;28;20051;-73
2023/04/08 05:17:43;;;;;;;40.88;26.90;;;;;;;6.72;100.00;102205.69;4967249;28;20058;-73
2023/04/08 05:20:09;;;;;;;44.60;27.52;;;;;;;6.72;100.00;102213.41;4966791;28;20031;-74
2023/04/08 05:22:34;;;;;;;41.58;26.05;;;;;;;6.70;100.00;102211.50;4967958;28;20523;-74
2023/04/08 05:25:00;;;;;;;39.58;25.80;;;;;;;6.71;100.00;102210.72;4966222;28;20114;-74
2023/04/08 05:27:26;;;;;;;39.60;25.55;;;;;;;6.71;100.00;102210.72;4962911;28;20023;-74
2023/04/08 05:29:51;;;;;;;40.30;26.90;;;;;;;6.70;100.00;102214.97;4959289;28;20023;-74
2023/04/08 05:32:16;;;;;;;38.70;26.05;;;;;;;6.69;100.00;102213.16;4966292;28;20023;-73
2023/04/08 05:34:42;;;;;;;33.90;24.23;;;;;;;6.70;100.00;102221.81;4964400;28;20075;-74
2023/04/08 05:37:07;;;;;;;34.20;24.98;;;;;;;6.69;100.00;102218.31;4964264;28;20030;-74
2023/04/08 05:39:33;;;;;;;44.92;27.40;;;;;;;6.71;100.00;102224.47;4954017;28;20066;-74
2023/04/08 05:41:58;;;;;;;43.58;29.92;;;;;;;6.71;100.00;102224.47;4959098;28;20038;-74
2023/04/08 05:44:23;;;;;;;51.53;31.67;;;;;;;6.71;100.00;102224.47;4958747;28;20043;-73
2023/04/08 05:46:49;;;;;;;54.17;33.85;;;;;;;6.73;100.00;102222.00;4967048;28;20038;-73
2023/04/08 05:49:16;;;;;;;56.65;34.25;;;;;;;6.75;100.00;102224.69;4970845;28;20058;-74
2023/04/08 05:51:41;;;;;;;55.45;33.72;;;;;;;6.76;100.00;102223.91;4966455;28;20047;-74
2023/04/08 05:54:06;;;;;;;55.75;34.53;;;;;;;6.75;100.00;102229.84;4961074;28;20502;-74
2023/04/08 05:56:31;;;;;;;60.22;35.45;;;;;;;6.76;100.00;102229.06;4962313;28;20030;-74
2023/04/08 05:58:57;;;;;;;49.65;32.80;;;;;;;6.76;100.00;102236.81;4967619;28;20037;-74
2023/04/08 06:01:22;;;;;;;54.30;34.45;;;;;;;6.75;100.00;102237.56;4968835;28;20086;-74
2023/04/08 06:03:48;;;;;;;53.42;34.60;;;;;;;6.76;100.00;102237.72;4970153;28;20031;-74
2023/04/08 06:06:13;;;;;;;51.50;33.78;;;;;;;6.76;100.00;102232.56;4963489;28;20109;-74
2023/04/08 06:08:39;;;;;;;49.80;32.75;;;;;;;6.77;100.00;102234.34;4970075;28;20042;-74
2023/04/08 06:11:04;;;;;;;57.88;35.08;;;;;;;6.79;100.00;102247.31;4965438;28;20482;-74
2023/04/08 06:13:30;;;;;;;50.13;32.83;;;;;;;6.80;100.00;102243.97;4961253;28;20035;-73
2023/04/08 06:15:56;;;;;;;46.90;32.35;;;;;;;6.82;100.00;102237.22;4960458;28;20030;-74
2023/04/08 06:18:21;;;;;;;50.03;32.17;;;;;;;6.83;100.00;102249.34;4964317;28;20159;-74
2023/04/08 06:20:47;;;;;;;48.70;33.28;;;;;;;6.85;100.00;102252.91;4965787;28;20039;-73
2023/04/08 06:23:12;;;;;;;47.80;33.60;;;;;;;6.87;100.00;102253.00;4967263;28;20089;-74
2023/04/08 06:25:37;;;;;;;49.38;32.83;;;;;;;6.89;100.00;102254.91;4963838;28;20480;-73
2023/04/08 06:28:03;;;;;;;46.20;32.63;;;;;;;6.90;100.00;102255.81;4958094;28;20464;-74
2023/04/08 06:30:28;;;;;;;49.85;33.60;;;;;;;6.91;100.00;102263.63;4968928;28;20030;-74
2023/04/08 06:32:53;;;;;;;47.03;33.70;;;;;;;6.91;100.00;102258.47;4970098;28;20050;-74
2023/04/08 06:35:19;;;;;;;50.03;33.25;;;;;;;6.93;100.00;102274.94;4979031;28;20053;-73
2023/04/08 06:37:44;;;;;;;49.88;32.28;;;;;;;6.95;100.00;102270.81;4969955;28;20034;-73
2023/04/08 06:40:10;;;;;;;46.70;32.30;;;;;;;6.99;100.00;102271.91;4970070;28;20050;-74
2023/04/08 06:42:37;;;;;;;49.25;32.58;;;;;;;7.01;100.00;102272.91;4959138;28;20382;-73
2023/04/08 06:45:03;;;;;;;49.35;32.75;;;;;;;7.05;100.00;102281.75;4960821;28;20530;-74
2023/04/08 06:47:28;;;;;;;42.50;30.83;;;;;;;7.07;100.00;102277.59;4970176;28;20032;-74
2023/04/08 06:49:53;;;;;;;41.22;31.05;;;;;;;7.09;100.00;102282.06;4968496;28;20036;-73
2023/04/08 06:52:19;;;;;;;42.45;29.80;;;;;;;7.11;100.00;102281.28;4978147;28;20507;-73
2023/04/08 06:54:45;;;;;;;42.90;31.50;;;;;;;7.14;100.00;102282.38;4975152;28;20026;-74
2023/04/08 06:57:10;;;;;;;42.33;31.30;;;;;;;7.16;100.00;102285.09;4964619;28;20027;-74
2023/04/08 06:59:35;;;;;;;37.40;27.85;;;;;;;7.16;100.00;102287.66;4961600;28;20034;-73
2023/04/08 07:02:01;;;;;;;34.70;25.92;;;;;;;7.18;100.00;102288.66;4968474;28;20844;-74
2023/04/08 07:04:26;;;;;;;36.50;25.83;;;;;;;7.19;100.00;102303.34;4962984;28;20063;-74
2023/04/08 07:06:51;;;;;;;33.78;25.00;;;;;;;7.20;100.00;102302.53;4966215;28;20029;-74
2023/04/08 07:09:17;;;;;;;31.17;24.77;;;;;;;7.20;100.00;102298.28;4957973;28;20037;-73
2023/04/08 07:11:42;;;;;;;32.10;24.02;;;;;;;7.22;100.00;102306.13;4957949;28;20419;-74
2023/04/08 07:14:07;;;;;;;33.75;25.42;;;;;;;7.25;100.00;102310.63;4962712;28;20490;-74
2023/04/08 07:16:33;;;;;;;30.65;24.63;;;;;;;7.27;100.00;102309.00;4967683;28;20027;-74
2023/04/08 07:18:58;;;;;;;31.23;24.92;;;;;;;7.29;100.00;102312.59;4976750;28;20030;-74
2023/04/08 07:21:23;;;;;;;32.70;23.90;;;;;;;7.29;100.00;102312.59;4977380;28;20031;-74
2023/04/08 07:23:49;;;;;;;28.70;23.52;;;;;;;7.31;100.00;102314.50;4963111;28;20151;-73
2023/04/08 07:26:14;;;;;;;31.30;24.05;;;;;;;7.33;100.00;102324.94;4955551;28;20055;-73
2023/04/08 07:28:40;;;;;;;27.15;22.58;;;;;;;7.34;100.00;102331.84;4962197;28;20026;-74
2023/04/08 07:31:14;;;;;;;27.05;21.63;;;;;;;7.34;100.00;102337.00;4963792;28;20032;-74
2023/04/08 07:33:40;;;;;;;29.80;22.45;;;;;;;7.34;100.00;102337.00;4960631;28;20513;-74
2023/04/08 07:36:07;;;;;;;30.95;24.38;;;;;;;7.32;100.00;102338.63;4966959;28;20113;-74
2023/04/08 07:38:32;;;;;;;29.58;23.02;;;;;;;7.34;100.00;102334.44;4962979;28;20407;-73
2023/04/08 07:40:58;;;;;;;26.23;21.73;;;;;;;7.35;100.00;102333.66;4968727;28;20030;-73
2023/04/08 07:43:23;;;;;;;28.90;23.50;;;;;;;7.35;100.00;102336.25;4973848;28;20026;-74
2023/04/08 07:45:48;;;;;;;26.75;22.42;;;;;;;7.35;100.00;102333.66;4961211;28;20046;-74
2023/04/08 07:48:14;;;;;;;30.02;24.83;;;;;;;7.38;100.00;102341.59;4970102;28;20434;-74
2023/04/08 07:50:39;;;;;;;29.27;23.55;;;;;;;7.38;100.00;102344.19;4970824;28;20031;-73
2023/04/08 07:53:04;;;;;;;30.88;24.08;;;;;;;7.38;100.00;102340.72;4965916;28;20680;-73
2023/04/08 07:55:33;;;;;;;29.30;23.25;;;;;;;7.39;100.00;102351.16;4956446;28;20023;-74
2023/04/08 07:58:00;;;;;;;28.15;23.10;;;;;;;7.39;100.00;102342.50;4972504;28;20053;-73
2023/04/08 08:00:25;;;;;;;25.25;21.55;;;;;;;7.39;100.00;102346.00;4965727;28;20065;-73
2023/04/08 08:02:51;;;;;;;27.30;22.35;;;;;;;7.41;100.00;102348.69;4986638;28;20549;-73
2023/04/08 08:05:16;;;;;;;29.80;22.60;;;;;;;7.42;100.00;102353.94;4976561;28;20023;-73
2023/04/08 08:07:41;;;;;;;26.30;21.45;;;;;;;7.44;100.00;102361.78;4976911;28;20054;-74
2023/04/08 08:10:07;;;;;;;25.40;21.42;;;;;;;7.45;100.00;102355.81;4956242;28;20254;-73
2023/04/08 08:12:33;;;;;;;26.73;22.05;;;;;;;7.43;100.00;102363.47;4958421;28;20022;-74
2023/04/08 08:14:58;;;;;;;28.25;23.55;;;;;;;7.45;100.00;102369.63;4955702;28;20082;-74
2023/04/08 08:17:24;;;;;;;29.50;23.30;;;;;;;7.45;100.00;102364.47;4965264;28;20109;-73
2023/04/08 08:19:50;;;;;;;29.95;23.40;;;;;;;7.47;100.00;102373.97;4958537;28;20042;-74
2023/04/08 08:22:15;;;;;;;29.50;22.63;;;;;;;7.47;100.00;102368.81;4960658;28;20046;-74
2023/04/08 08:24:41;;;;;;;28.15;22.73;;;;;;;7.45;100.00;102376.44;4964495;28;20472;-73
2023/04/08 08:27:09;;;;;;;29.25;22.73;;;;;;;7.45;100.00;102381.63;4971544;28;20022;-73
2023/04/08 08:29:35;;;;;;;30.95;23.67;;;;;;;7.45;100.00;102371.28;4970699;28;20035;-74
2023/04/08 08:32:02;;;;;;;29.60;24.63;;;;;;;7.44;100.00;102374.69;4962173;28;20086;-74
2023/04/08 08:34:28;;;;;;;30.38;22.95;;;;;;;7.44;100.00;102375.59;4960090;28;20387;-73
2023/04/08 08:36:53;;;;;;;30.15;24.08;;;;;;;7.43;100.00;102376.34;4958972;28;20065;-74
2023/04/08 08:39:18;;;;;;;29.08;23.10;;;;;;;7.44;100.00;102378.16;4968121;28;20061;-74
2023/04/08 08:41:44;;;;;;;31.85;25.42;;;;;;;7.48;100.00;102387.00;4964401;28;20097;-74
2023/04/08 08:44:11;;;;;;;30.05;24.67;;;;;;;7.50;100.00;102389.69;4966537;28;20547;-74
2023/04/08 08:46:43;;;;;;;34.08;25.65;;;;;;;7.50;100.00;102385.41;4969735;28;20037;-73
2023/04/08 08:49:08;;;;;;;30.52;24.08;;;;;;;7.52;100.00;102391.56;4976764;28;20030;-74
2023/04/08 08:51:34;;;;;;;29.33;24.75;;;;;;;7.55;100.00;102394.38;4976971;28;20494;-73
2023/04/08 08:54:03;;;;;;;30.90;24.55;;;;;;;7.61;100.00;102388.72;4968636;28;20030;-74
2023/04/08 08:56:28;;;;;;;33.45;26.00;;;;;;;7.65;100.00;102390.75;4977156;28;20105;-74
2023/04/08 08:58:54;;;;;;;30.63;25.42;;;;;;;7.69;100.00;102395.34;4974203;28;20035;-73
2023/04/08 09:01:31;;;;;;;31.35;25.88;;;;;;;7.73;100.00;102400.69;4973675;28;20114;-74
2023/04/08 09:04:25;;;;;;;31.88;24.73;;;;;;;7.76;100.00;102403.47;4961368;28;20037;-73
2023/04/08 09:07:12;;;;;;;29.08;24.05;;;;;;;7.76;100.00;102406.06;4961999;28;20049;-73
2023/04/08 09:09:49;;;;;;;26.35;22.75;;;;;;;7.75;100.00;102404.28;4973307;28;20046;-73
2023/04/08 09:12:14;;;;;;;30.38;25.63;;;;;;;7.75;100.00;102412.03;4976676;28;20360;-73
2023/04/08 09:14:40;;;;;;;31.45;25.67;;;;;;;7.74;100.00;102412.81;4966786;28;20058;-73
2023/04/08 09:17:05;;;;;;;35.40;26.95;;;;;;;7.73;100.00;102414.50;4965796;28;20034;-73
2023/04/08 09:19:30;;;;;;;30.48;24.98;;;;;;;7.73;100.00;102414.50;4971836;28;20026;-74
2023/04/08 09:22:09;;;;;;;33.88;25.35;;;;;;;7.75;100.00;102417.19;4964882;28;20197;-73
2023/04/08 09:24:36;;;;;;;27.15;23.50;;;;;;;7.79;100.00;102419.16;4967425;28;20091;-74
2023/04/08 09:27:04;;;;;;;26.70;23.88;;;;;;;7.84;100.00;102414.34;4963412;28;20034;-74
2023/04/08 09:29:30;;;;;;;28.65;24.25;;;;;;;7.90;100.00;102419.91;4960762;28;20090;-73
2023/04/08 09:31:58;;;;;;;25.73;22.73;;;;;;;7.93;100.00;102426.19;4968699;28;20577;-73
2023/04/08 09:34:26;;;;;;;27.77;24.77;;;;;;;7.98;100.00;102415.28;4967965;28;20018;-74
2023/04/08 09:36:52;;;;;;;28.45;23.88;;;;;;;8.04;100.00;102420.88;4967630;28;20026;-73
2023/04/08 09:39:17;;;;;;;28.02;23.10;;;;;;;8.06;100.00;102424.44;4960010;28;20023;-73
2023/04/08 09:41:46;;;;;;;29.55;24.40;;;;;;;8.08;100.00;102421.97;4964554;28;20550;-74
2023/04/08 09:44:13;;;;;;;26.95;22.67;;;;;;;8.10;100.00;102430.69;4966751;28;20650;-74
2023/04/08 09:47:11;;;;;;;26.25;22.98;;;;;;;8.12;100.00;102430.03;4957599;28;20042;-73
2023/04/08 09:49:43;;;;;;;25.98;23.27;;;;;;;8.15;100.00;102429.31;4960528;28;20049;-73
2023/04/08 09:52:12;;;;;;;24.95;21.98;;;;;;;8.24;100.00;102434.25;4966218;28;20014;-74
2023/04/08 09:55:01;;;;;;;27.25;22.95;;;;;;;8.29;100.00;102430.28;4955137;28;20045;-72
2023/04/08 09:57:45;;;;;;;24.42;21.85;;;;;;;8.35;100.00;102438.41;4973210;28;20031;-74
2023/04/08 10:00:14;;;;;;;26.17;21.75;;;;;;;8.39;100.00;102437.84;4965545;28;20034;-66
2023/04/08 10:03:05;;;;;;;23.77;21.05;;;;;;;8.43;100.00;102440.63;4962779;28;20027;-70
2023/04/08 10:05:32;;;;;;;23.98;21.48;;;;;;;8.46;100.00;102441.72;4967423;28;20030;-69
2023/04/08 10:07:57;;;;;;;23.77;21.35;;;;;;;8.50;100.00;102438.56;4971614;28;20042;-69
2023/04/08 10:10:24;;;;;;;24.52;22.00;;;;;;;8.57;100.00;102442.47;4972615;28;20394;-70
2023/04/08 10:12:50;;;;;;;26.20;23.38;;;;;;;8.63;100.00;102444.56;4964960;28;20475;-69
2023/04/08 10:15:27;;;;;;;23.75;21.27;;;;;;;8.67;100.00;102443.09;4964938;28;20051;-69
2023/04/08 10:17:54;;;;;;;24.45;22.02;;;;;;;8.71;100.00;102437.28;4958921;28;20046;-69
2023/04/08 10:20:35;;;;;;;23.55;21.15;;;;;;;8.76;100.00;102433.34;4965029;28;20066;-69
2023/04/08 10:23:00;;;;;;;23.63;21.25;;;;;;;8.80;100.00;102430.16;4965348;28;20109;-70
2023/04/08 10:25:36;;;;;;;25.15;22.48;;;;;;;8.88;100.00;102441.00;4961745;28;20499;-69
2023/04/08 10:28:10;;;;;;;24.67;22.05;;;;;;;8.96;100.00;102434.63;4961716;28;20498;-70
2023/04/08 10:30:43;;;;;;;27.20;24.40;;;;;;;9.05;100.00;102433.44;4968455;28;20026;-69
2023/04/08 10:33:17;;;;;;;25.33;22.67;;;;;;;9.11;100.00;102438.97;4962957;28;20027;-70
2023/04/08 10:36:13;;;;;;;24.60;22.00;;;;;;;9.18;100.00;102429.91;4969522;28;20035;-67
2023/04/08 10:38:41;;;;;;;25.08;22.58;;;;;;;9.24;100.00;102435.50;4957866;28;20046;-70
2023/04/08 10:41:07;;;;;;;25.08;22.58;;;;;;;9.29;100.00;102428.00;4961534;28;20070;-67
2023/04/08 10:43:33;;;;;;;24.42;22.00;;;;;;;9.33;100.00;102428.31;4967577;28;20476;-69
2023/04/08 10:45:59;;;;;;;24.95;22.35;;;;;;;9.38;100.00;102431.19;4968013;28;20172;-70
2023/04/08 10:48:25;;;;;;;23.95;21.52;;;;;;;9.36;100.00;102420.75;4972411;28;20052;-69
2023/04/08 10:51:01;;;;;;;24.23;21.90;;;;;;;9.40;100.00;102420.91;4964049;28;20440;-70
2023/04/08 10:53:27;;;;;;;24.48;22.08;;;;;;;9.44;100.00;102415.16;4979205;28;20319;-70
2023/04/08 10:55:54;;;;;;;24.73;22.20;;;;;;;9.52;100.00;102419.09;4962168;28;20569;-70
2023/04/08 10:58:19;;;;;;;24.33;21.92;;;;;;;9.61;100.00;102411.00;4963501;28;20251;-69
2023/04/08 11:00:45;;;;;;;24.40;22.00;;;;;;;9.76;100.00;102408.47;4966760;28;20066;-70
2023/04/08 11:03:10;;;;;;;22.30;20.13;;;;;;;9.80;100.00;102413.03;4960771;28;20019;-69
2023/04/08 11:05:37;;;;;;;24.42;21.98;;;;;;;9.87;100.00;102408.19;4963258;28;20031;-72
2023/04/08 11:08:04;;;;;;;22.60;20.40;;;;;;;9.99;100.00;102414.13;4957505;28;20027;-70
2023/04/08 11:10:30;;;;;;;23.08;20.63;;;;;;;10.01;100.00;102417.69;4960119;28;20073;-69